Time;durP1;ratioP1;P1;durP2;ratioP2;P2;SDS_P1;SDS_P2;PMS_P1;PMS_P2;Temp;Humidity;BMP_temperature;BMP_pressure;BME280_temperature;BME280_humidity;BME280_pressure;Samples;Min_cycle;Max_cycle;Signal;HPM_P1;HPM_P2
2023/02/03 00:00:00;;;;;;;2.93;1.83;;;6.70;96.90;;;9.67;53.52;98832.59;5048824;28;20417;-51
2023/02/03 00:02:27;;;;;;;4.00;1.77;;;6.70;96.80;;;9.54;53.76;98819.47;5033211;28;20045;-48
2023/02/03 00:04:55;;;;;;;2.63;1.90;;;6.70;97.30;;;9.70;53.28;98827.03;5033597;28;20501;-48
2023/02/03 00:07:23;;;;;;;3.63;1.90;;;6.70;97.10;;;9.62;53.83;98816.19;5033961;28;20049;-47
2023/02/03 00:09:50;;;;;;;3.93;1.93;;;6.70;97.60;;;9.56;53.87;98819.34;5033313;28;20041;-47
2023/02/03 00:12:18;;;;;;;5.43;2.57;;;6.60;98.10;;;9.50;54.25;98815.38;5032148;28;20041;-46
2023/02/03 00:14:45;;;;;;;1.93;1.63;;;6.60;98.70;;;9.40;54.66;98815.28;5032813;28;20104;-49
2023/02/03 00:17:14;;;;;;;3.40;2.10;;;6.60;99.00;;;9.53;54.00;98820.44;5033326;28;20049;-46
2023/02/03 00:19:41;;;;;;;3.70;1.80;;;6.60;99.90;;;9.46;54.44;98803.31;5033342;28;20429;-45
2023/02/03 00:22:09;;;;;;;4.47;2.03;;;6.60;99.40;;;9.34;54.60;98809.63;5032707;28;20429;-49
2023/02/03 00:24:36;;;;;;;4.13;2.10;;;6.60;99.50;;;9.30;55.16;98824.13;5033088;28;20046;-49
2023/02/03 00:27:04;;;;;;;3.37;1.90;;;6.50;99.90;;;9.28;55.18;98826.91;5033128;28;20041;-48
2023/02/03 00:29:31;;;;;;;4.07;2.40;;;6.50;99.90;;;9.16;55.54;98809.31;5031685;28;20033;-48
2023/02/03 00:31:59;;;;;;;2.57;1.80;;;6.50;99.90;;;9.26;55.14;98811.06;5031712;28;20037;-50
2023/02/03 00:34:29;;;;;;;3.53;1.80;;;6.50;99.90;;;9.40;54.75;98812.63;5032350;28;20038;-46
2023/02/03 00:36:57;;;;;;;6.67;2.53;;;6.50;99.90;;;9.45;54.79;98823.72;5031465;28;20056;-46
2023/02/03 00:39:25;;;;;;;2.83;2.03;;;6.60;99.90;;;9.32;55.26;98822.19;5031825;28;20041;-48
2023/02/03 00:41:52;;;;;;;5.10;2.60;;;6.50;99.90;;;9.31;55.15;98823.16;5031190;28;20049;-49
2023/02/03 00:44:20;;;;;;;4.23;1.93;;;6.50;99.90;;;9.35;55.04;98824.59;5031559;28;20053;-50
2023/02/03 00:46:47;;;;;;;4.03;1.83;;;6.50;99.90;;;9.34;55.22;98826.41;5031659;28;20064;-50
2023/02/03 00:49:15;;;;;;;3.93;2.10;;;6.50;99.90;;;9.39;54.81;98834.84;5031417;28;20046;-48
2023/02/03 00:51:42;;;;;;;4.80;1.97;;;6.50;99.90;;;9.39;55.14;98824.22;5030369;28;20061;-48
2023/02/03 00:54:10;;;;;;;5.80;2.17;;;6.50;99.90;;;9.30;55.27;98818.81;5031597;28;20041;-48
2023/02/03 00:56:39;;;;;;;3.90;2.03;;;6.50;99.90;;;9.10;55.79;98829.22;5015127;28;20044;-46
2023/02/03 00:59:07;;;;;;;6.13;2.13;;;6.40;99.90;;;9.25;55.42;98821.84;5031714;28;20128;-51
2023/02/03 01:01:35;;;;;;;4.87;2.13;;;6.40;99.90;;;9.35;55.35;98844.03;5031043;28;20049;-53
2023/02/03 01:04:03;;;;;;;3.30;2.30;;;6.50;99.90;;;9.26;55.34;98840.31;5007058;28;20501;-47
2023/02/03 01:06:33;;;;;;;3.30;1.93;;;6.50;99.90;;;9.30;55.23;98834.75;5031299;28;20044;-46
2023/02/03 01:09:02;;;;;;;3.43;2.60;;;6.50;99.90;;;9.18;55.84;98820.66;5031067;28;20108;-48
2023/02/03 01:11:31;;;;;;;4.13;2.00;;;6.50;99.90;;;9.26;55.53;98818.22;5031184;28;20469;-48
2023/02/03 01:14:00;;;;;;;2.83;1.87;;;6.50;99.90;;;9.35;55.38;98806.84;5031254;28;20042;-46
2023/02/03 01:16:30;;;;;;;3.10;1.90;;;6.50;99.90;;;9.40;55.00;98798.47;5032206;28;20045;-49
2023/02/03 01:18:57;;;;;;;5.60;2.00;;;6.50;99.90;;;9.50;54.99;98804.75;5032291;28;20049;-48
2023/02/03 01:21:26;;;;;;;3.17;2.10;;;6.60;99.90;;;9.49;54.96;98795.06;5031062;28;20052;-46
2023/02/03 01:23:54;;;;;;;2.47;1.53;;;6.50;99.90;;;9.27;55.61;98799.50;5030561;28;20064;-48
2023/02/03 01:26:23;;;;;;;3.50;1.93;;;6.50;99.90;;;9.33;55.21;98810.59;5029711;28;20457;-50
2023/02/03 01:28:56;;;;;;;3.07;1.80;;;6.50;99.90;;;9.20;55.83;98816.88;5030701;28;20045;-48
2023/02/03 01:31:38;;;;;;;2.97;2.38;;;6.40;99.90;;;9.36;55.25;98802.34;5030430;28;20417;-51
2023/02/03 01:34:11;;;;;;;3.00;1.97;;;6.50;99.90;;;9.38;55.09;98795.97;5022716;28;20041;-51
2023/02/03 01:36:39;;;;;;;3.23;1.70;;;6.50;99.90;;;9.39;55.13;98796.81;5027481;28;20067;-50
2023/02/03 01:39:07;;;;;;;3.53;1.63;;;6.50;99.90;;;9.47;54.87;98791.69;5030548;28;20049;-50
2023/02/03 01:41:37;;;;;;;2.40;1.70;;;6.50;99.90;;;9.39;54.80;98797.66;5031434;28;20045;-47
2023/02/03 01:44:39;;;;;;;1.87;1.47;;;6.50;99.90;;;9.36;55.26;98805.84;5030578;28;20054;-48
2023/02/03 01:47:45;;;;;;;2.00;1.80;;;6.60;99.90;;;9.38;54.89;98803.94;5024145;28;20064;-49
2023/02/03 01:50:29;;;;;;;4.33;1.97;;;6.60;99.90;;;9.45;54.90;98815.75;5037784;28;20072;-48
2023/02/03 01:53:05;;;;;;;2.07;1.53;;;6.60;99.90;;;9.51;54.84;98797.63;5027563;28;20121;-48
2023/02/03 01:55:41;;;;;;;4.60;2.23;;;6.60;99.90;;;9.36;55.08;98808.50;5022677;28;20524;-50
2023/02/03 01:58:24;;;;;;;4.40;1.87;;;6.60;99.90;;;9.51;54.54;98801.09;5030366;28;20476;-49
2023/02/03 02:00:54;;;;;;;2.47;1.73;;;6.60;99.90;;;9.52;54.80;98801.94;5014543;28;20068;-50
2023/02/03 02:03:30;;;;;;;2.93;1.47;;;6.60;99.90;;;9.55;54.68;98797.22;5029939;28;20040;-49
2023/02/03 02:06:06;;;;;;;2.53;1.40;;;6.60;99.90;;;9.60;54.56;98788.88;5031094;28;20041;-49
2023/02/03 02:08:36;;;;;;;3.33;1.67;;;6.60;99.90;;;9.59;54.67;98784.53;5030076;28;20053;-51
2023/02/03 02:11:05;;;;;;;2.57;1.60;;;6.70;99.90;;;9.50;54.58;98758.69;5029782;28;20393;-49
2023/02/03 02:13:35;;;;;;;1.37;1.27;;;6.60;99.90;;;9.61;54.47;98748.84;5029802;28;20057;-49
2023/02/03 02:16:27;;;;;;;1.87;1.50;;;6.60;99.90;;;9.50;54.46;98735.63;5031151;28;20045;-50
2023/02/03 02:19:41;;;;;;;1.80;1.40;;;6.70;99.90;;;9.51;54.48;98724.00;5011918;28;20080;-50
2023/02/03 02:22:38;;;;;;;5.03;2.53;;;6.60;99.90;;;9.25;55.60;98748.28;5022703;28;20045;-49
2023/02/03 02:25:42;;;;;;;3.13;1.80;;;6.50;99.90;;;9.23;55.35;98744.06;5029878;28;20397;-51
2023/02/03 02:29:06;;;;;;;2.75;1.27;;;6.50;99.90;;;9.38;55.40;98744.59;5022250;28;20052;-49
2023/02/03 02:31:50;;;;;;;2.50;1.17;;;6.50;99.90;;;9.39;55.35;98751.63;5025321;28;20058;-47
2023/02/03 02:34:56;;;;;;;;;;;6.50;99.90;;;9.43;55.08;98731.78;5016325;28;20409;-50
2023/02/03 02:38:10;;;;;;;2.50;1.57;;;6.50;99.90;;;9.44;55.29;98715.72;5017858;28;19927;-50
2023/02/03 02:40:56;;;;;;;2.30;1.53;;;6.60;99.90;;;9.42;55.12;98693.75;5026600;28;20048;-48
2023/02/03 02:43:44;;;;;;;3.03;1.30;;;6.60;99.90;;;9.37;55.01;98703.06;5024416;28;20385;-48
2023/02/03 02:46:18;;;;;;;1.30;1.13;;;6.60;99.90;;;9.36;55.02;98726.13;5023031;28;20492;-48
2023/02/03 02:49:02;;;;;;;1.23;1.00;;;6.50;99.90;;;9.57;54.88;98731.47;5013817;28;20057;-49
2023/02/03 02:51:31;;;;;;;1.67;1.30;;;6.60;99.90;;;9.44;55.02;98742.31;5029402;28;20045;-51
2023/02/03 02:54:06;;;;;;;2.07;1.07;;;6.60;99.90;;;9.62;54.29;98739.91;5029583;28;20041;-50
2023/02/03 02:56:37;;;;;;;2.03;1.17;;;6.60;99.90;;;9.65;54.53;98729.03;5029770;28;20421;-48
2023/02/03 02:59:06;;;;;;;1.67;0.80;;;6.70;99.90;;;9.76;54.05;98738.75;5013250;28;20046;-49
2023/02/03 03:01:34;;;;;;;1.97;1.10;;;6.70;99.90;;;9.76;54.25;98732.59;5030480;28;20049;-49
2023/02/03 03:04:07;;;;;;;1.20;1.00;;;6.70;99.90;;;9.69;54.16;98710.97;5029435;28;20056;-50
2023/02/03 03:06:51;;;;;;;1.40;1.03;;;6.70;99.90;;;9.58;54.53;98698.63;5029735;28;20056;-48
2023/02/03 03:09:23;;;;;;;1.47;1.10;;;6.70;99.90;;;9.51;54.53;98694.78;5012933;28;20048;-49
2023/02/03 03:12:01;;;;;;;1.97;1.10;;;6.60;99.90;;;9.56;54.58;98692.59;5013361;28;20417;-49
2023/02/03 03:14:31;;;;;;;1.47;1.10;;;6.60;99.90;;;9.49;54.39;98698.53;5029064;28;20037;-47
2023/02/03 03:17:04;;;;;;;1.50;1.20;;;6.60;99.90;;;9.45;54.50;98695.28;5028975;28;20038;-46
2023/02/03 03:19:41;;;;;;;0.87;0.83;;;6.50;99.90;;;9.42;54.45;98695.53;5012738;28;20050;-49
2023/02/03 03:22:15;;;;;;;3.93;1.30;;;6.50;99.90;;;9.40;54.62;98710.78;5028946;28;20288;-47
2023/02/03 03:27:57;;;;;;;2.30;1.10;;;6.50;99.90;;;9.53;54.25;98727.38;5026492;28;20049;-48
2023/02/03 03:30:31;;;;;;;1.70;1.17;;;6.60;99.90;;;9.51;54.57;98724.00;5029220;28;20488;-48
2023/02/03 03:32:59;;;;;;;2.15;0.77;;;6.60;99.90;;;9.64;54.29;98739.78;5028911;28;20053;-48
2023/02/03 03:35:55;;;;;;;2.40;0.90;;;6.60;99.90;;;9.66;54.26;98751.97;5029167;28;20033;-47
2023/02/03 03:38:35;;;;;;;2.47;0.90;;;6.60;99.90;;;9.61;54.10;98740.03;5023919;28;20366;-50
2023/02/03 03:41:39;;;;;;;0.90;0.80;;;6.60;99.80;;;9.63;54.19;98749.59;5028770;28;20052;-49
2023/02/03 03:44:14;;;;;;;2.13;0.73;;;6.60;98.90;;;9.72;53.90;98766.59;5029177;28;20053;-47
2023/02/03 03:46:54;;;;;;;1.97;0.87;;;6.70;99.00;;;9.28;54.69;98760.47;5029257;28;20046;-50
2023/02/03 03:49:24;;;;;;;1.40;0.90;;;6.50;98.90;;;9.39;54.52;98762.25;5023899;28;20045;-50
2023/02/03 03:52:06;;;;;;;1.57;1.00;;;6.50;99.50;;;9.61;54.19;98779.91;5015997;28;20488;-47
2023/02/03 03:54:37;;;;;;;1.37;1.00;;;6.60;99.40;;;9.64;53.79;98777.84;5032712;28;20052;-49
2023/02/03 03:57:35;;;;;;;0.83;0.67;;;6.60;99.00;;;9.51;54.54;98785.16;5033155;28;20064;-48
2023/02/03 04:00:08;;;;;;;1.60;1.10;;;6.60;99.80;;;9.63;54.24;98804.56;5033682;28;20046;-46
2023/02/03 04:02:41;;;;;;;3.03;1.20;;;6.60;99.90;;;9.48;54.12;98806.69;5031864;28;20052;-46
2023/02/03 04:05:11;;;;;;;1.37;0.90;;;6.60;99.90;;;9.45;55.00;98801.63;5032432;28;20600;-50
2023/02/03 04:07:45;;;;;;;2.13;1.30;;;6.60;99.90;;;9.64;54.78;98791.16;5032623;28;20041;-47
2023/02/03 04:10:28;;;;;;;2.25;1.42;;;6.70;99.90;;;9.73;54.57;98788.69;5033469;28;20033;-47
2023/02/03 04:12:56;;;;;;;1.70;1.13;;;6.70;99.90;;;9.69;54.62;98790.75;5031971;28;20046;-47
2023/02/03 04:15:24;;;;;;;2.70;1.40;;;6.70;99.90;;;9.78;54.92;98805.13;5033627;28;20040;-48
2023/02/03 04:17:53;;;;;;;1.73;1.27;;;6.70;99.90;;;9.78;54.75;98805.94;5032456;28;20045;-47
2023/02/03 04:20:20;;;;;;;7.90;1.97;;;6.70;99.90;;;9.83;55.10;98806.44;5032252;28;20057;-46
2023/02/03 04:22:48;;;;;;;11.13;1.60;;;6.70;99.90;;;9.82;55.00;98798.56;5032986;28;20493;-48
2023/02/03 04:25:16;;;;;;;2.80;1.30;;;6.70;99.90;;;9.79;55.07;98791.69;5025468;28;20049;-46
2023/02/03 04:27:43;;;;;;;4.57;1.43;;;6.70;99.90;;;9.64;55.73;98780.50;5033302;28;20041;-49
2023/02/03 04:30:12;;;;;;;1.70;1.10;;;6.60;99.90;;;9.67;55.80;98768.78;5032891;28;20432;-49
2023/02/03 04:32:40;;;;;;;1.60;1.23;;;6.50;99.90;;;9.66;55.92;98780.38;5033314;28;20400;-46
2023/02/03 04:35:07;;;;;;;2.73;1.63;;;6.50;99.90;;;9.64;55.85;98775.19;5032877;28;20037;-47
2023/02/03 04:37:35;;;;;;;1.97;1.00;;;6.50;99.90;;;9.69;55.96;98766.81;5033233;28;20037;-47
2023/02/03 04:40:03;;;;;;;1.80;1.27;;;6.60;99.90;;;9.71;55.91;98764.03;5031854;28;20068;-48
2023/02/03 04:42:30;;;;;;;3.00;1.27;;;6.60;99.90;;;9.70;55.65;98765.03;5032616;28;20049;-49
2023/02/03 04:44:58;;;;;;;1.87;1.40;;;6.60;99.90;;;9.70;55.74;98767.69;5032471;28;20041;-46
2023/02/03 04:47:25;;;;;;;1.57;1.13;;;6.60;99.90;;;9.63;56.11;98768.22;5032814;28;20046;-49
2023/02/03 04:49:53;;;;;;;2.03;1.40;;;6.50;99.90;;;9.66;56.09;98772.41;5032503;28;20420;-49
2023/02/03 04:52:20;;;;;;;2.23;1.47;;;6.60;99.90;;;9.66;55.92;98765.28;5030259;28;20064;-51
2023/02/03 04:54:48;;;;;;;1.80;1.33;;;6.60;99.90;;;9.68;56.08;98759.00;5031821;28;20048;-51
2023/02/03 04:57:16;;;;;;;1.43;1.10;;;6.60;99.90;;;9.69;55.61;98758.00;5032774;28;20493;-49
2023/02/03 04:59:43;;;;;;;2.23;1.23;;;6.60;99.90;;;9.48;56.26;98758.84;5031296;28;20052;-51
2023/02/03 05:02:11;;;;;;;2.50;1.47;;;6.50;99.90;;;9.46;56.43;98753.66;5032132;28;20493;-47
2023/02/03 05:04:38;;;;;;;1.60;1.20;;;6.50;99.90;;;9.45;56.67;98767.06;5032243;28;20041;-48
2023/02/03 05:07:06;;;;;;;2.27;1.03;;;6.50;99.90;;;9.43;57.05;98771.66;5032320;28;20069;-46
2023/02/03 05:09:33;;;;;;;2.53;1.40;;;6.40;99.90;;;9.42;56.90;98781.47;5032291;28;20045;-49
2023/02/03 05:12:01;;;;;;;1.87;1.20;;;6.40;99.90;;;9.49;57.00;98787.09;5031703;28;20421;-48
2023/02/03 05:14:28;;;;;;;2.20;1.30;;;6.40;99.90;;;9.43;56.72;98785.78;5032223;28;20496;-49
2023/02/03 05:16:56;;;;;;;3.70;1.60;;;6.40;99.90;;;9.49;56.88;98791.56;5031824;28;20055;-47
2023/02/03 05:19:24;;;;;;;2.97;1.40;;;6.40;99.90;;;9.45;56.84;98790.97;5032124;28;20408;-51
2023/02/03 05:21:51;;;;;;;2.57;1.50;;;6.50;99.90;;;9.44;56.67;98783.97;5031728;28;20052;-46
2023/02/03 05:24:19;;;;;;;2.00;1.13;;;6.40;99.90;;;9.46;56.79;98782.06;5031713;28;20421;-48
2023/02/03 05:26:46;;;;;;;2.67;1.40;;;6.40;99.90;;;9.38;56.97;98776.50;5032240;28;20052;-48
2023/02/03 05:29:14;;;;;;;3.10;1.60;;;6.40;99.90;;;9.48;56.88;98776.59;5032097;28;20072;-47
2023/02/03 05:31:41;;;;;;;2.07;1.50;;;6.50;99.90;;;9.55;56.51;98783.09;5030646;28;20044;-48
2023/02/03 05:34:09;;;;;;;1.47;1.33;;;6.50;99.90;;;9.53;56.77;98796.50;5031721;28;20060;-46
2023/02/03 05:36:37;;;;;;;2.93;1.20;;;6.50;99.90;;;9.53;56.35;98793.84;5030675;28;20436;-48
2023/02/03 05:39:04;;;;;;;2.93;1.53;;;6.50;99.90;;;9.37;57.05;98790.78;5031477;28;20394;-50
2023/02/03 05:44:20;;;;;;;2.30;1.60;;;6.40;99.90;;;9.37;57.05;98785.47;5031745;28;20042;-48
2023/02/03 05:46:50;;;;;;;3.67;1.40;;;6.40;99.90;;;9.23;57.34;98790.09;5031712;28;20436;-46
2023/02/03 05:49:18;;;;;;;3.07;1.93;;;6.40;99.90;;;9.38;56.97;98779.16;5031242;28;20045;-49
2023/02/03 05:51:46;;;;;;;2.27;1.87;;;6.50;99.90;;;9.31;56.88;98783.31;5030924;28;20041;-47
2023/02/03 05:54:14;;;;;;;2.93;1.63;;;6.40;99.90;;;9.27;57.04;98772.91;5031561;28;20997;-46
2023/02/03 05:56:42;;;;;;;2.23;1.47;;;6.40;99.90;;;9.21;57.11;98759.31;5031508;28;20040;-47
2023/02/03 05:59:10;;;;;;;3.53;1.70;;;6.40;99.90;;;9.41;56.81;98752.34;5030338;28;20068;-46
2023/02/03 06:01:38;;;;;;;2.30;1.43;;;6.50;99.90;;;9.46;56.55;98743.03;5031882;28;20044;-46
2023/02/03 06:04:06;;;;;;;3.53;1.80;;;6.50;99.90;;;9.41;56.43;98745.19;5031499;28;20418;-47
2023/02/03 06:06:33;;;;;;;2.53;1.70;;;6.50;99.90;;;9.52;56.33;98754.09;5031395;28;20068;-48
2023/02/03 06:09:04;;;;;;;3.57;2.10;;;6.50;99.90;;;9.60;56.08;98759.63;5030165;28;20140;-49
2023/02/03 06:11:32;;;;;;;2.57;1.73;;;6.60;99.90;;;9.65;55.89;98755.63;5030303;28;20037;-47
2023/02/03 06:14:00;;;;;;;2.47;1.60;;;6.60;99.90;;;9.64;56.18;98755.75;5029719;28;20048;-51
2023/02/03 06:16:28;;;;;;;1.53;1.43;;;6.70;99.90;;;9.46;56.36;98731.56;5030005;28;20040;-48
2023/02/03 06:19:00;;;;;;;3.07;1.90;;;6.60;99.90;;;9.49;56.53;98733.94;5031152;28;20045;-49
2023/02/03 06:21:28;;;;;;;4.70;1.97;;;6.60;99.90;;;9.64;55.92;98747.78;5030990;28;20412;-45
2023/02/03 06:23:56;;;;;;;2.23;1.47;;;6.60;99.90;;;9.61;56.33;98771.94;5030937;28;20046;-47
2023/02/03 06:26:24;;;;;;;2.23;1.50;;;6.60;99.90;;;9.52;56.08;98770.03;5029823;28;20049;-46
2023/02/03 06:28:51;;;;;;;2.33;1.63;;;6.60;99.90;;;9.56;56.41;98759.03;5030909;28;20468;-48
2023/02/03 06:31:19;;;;;;;3.07;1.60;;;6.60;99.90;;;9.60;55.87;98759.63;5030425;28;20045;-45
2023/02/03 06:33:47;;;;;;;2.20;1.70;;;6.60;99.90;;;9.73;56.11;98754.13;5030873;28;20421;-49
2023/02/03 06:36:14;;;;;;;3.40;2.40;;;6.70;99.90;;;9.64;55.98;98753.94;5030670;28;20049;-46
2023/02/03 06:38:42;;;;;;;4.20;1.77;;;6.70;99.90;;;9.53;56.14;98759.28;5030771;28;20051;-49
2023/02/03 06:41:10;;;;;;;3.10;1.90;;;6.60;99.90;;;9.40;56.90;98759.47;5030275;28;20058;-46
2023/02/03 06:43:37;;;;;;;3.53;1.90;;;6.50;99.90;;;9.52;56.22;98746.97;5030648;28;20495;-46
2023/02/03 06:46:05;;;;;;;3.27;1.50;;;6.50;99.90;;;9.25;57.17;98747.44;5030780;28;20049;-48
2023/02/03 06:48:32;;;;;;;2.10;1.80;;;6.40;99.90;;;9.44;56.67;98731.66;5030460;28;20413;-50
2023/02/03 06:51:00;;;;;;;3.40;1.57;;;6.50;99.90;;;9.52;56.42;98743.47;5029904;28;20041;-48
2023/02/03 06:53:27;;;;;;;2.30;1.57;;;6.50;99.90;;;9.51;56.67;98733.81;5030600;28;20041;-49
2023/02/03 06:55:55;;;;;;;3.00;1.67;;;6.60;99.90;;;9.33;56.98;98741.50;5030946;28;20045;-49
2023/02/03 06:58:22;;;;;;;3.23;2.10;;;6.50;99.90;;;9.57;56.60;98734.13;5029582;28;20041;-48
2023/02/03 07:00:50;;;;;;;2.37;1.67;;;6.50;99.90;;;9.56;56.58;98750.22;5030198;28;20053;-50
2023/02/03 07:03:18;;;;;;;6.30;1.40;;;6.60;99.90;;;9.56;56.33;98739.59;5030320;28;20042;-46
2023/02/03 07:05:45;;;;;;;2.93;1.60;;;6.50;99.90;;;9.50;56.81;98732.09;5030597;28;20038;-47
2023/02/03 07:08:13;;;;;;;4.13;2.20;;;6.50;99.90;;;9.54;56.60;98725.56;5030397;28;20044;-48
2023/02/03 07:10:40;;;;;;;2.73;1.80;;;6.60;99.90;;;9.65;56.30;98725.50;5029003;28;20041;-47
2023/02/03 07:13:08;;;;;;;2.30;1.30;;;6.60;99.90;;;9.69;56.65;98729.59;5030532;28;20056;-48
2023/02/03 07:15:35;;;;;;;3.20;1.33;;;6.70;99.90;;;9.80;56.08;98729.53;5030966;28;20041;-48
2023/02/03 07:18:03;;;;;;;2.63;1.90;;;6.70;99.90;;;9.74;56.16;98713.28;5029167;28;20424;-50
2023/02/03 07:20:31;;;;;;;4.10;1.83;;;6.70;99.90;;;9.74;56.60;98710.63;5030295;28;20042;-47
2023/02/03 07:22:59;;;;;;;2.00;1.23;;;6.70;99.90;;;9.61;56.60;98713.44;5029995;28;20057;-47
2023/02/03 07:25:27;;;;;;;2.23;1.23;;;6.60;99.90;;;9.42;57.18;98717.66;5033629;28;20394;-49
2023/02/03 07:27:54;;;;;;;4.17;1.30;;;6.50;99.90;;;9.56;56.68;98713.84;5034209;28;20038;-49
2023/02/03 07:30:22;;;;;;;1.67;1.10;;;6.60;99.90;;;9.60;56.98;98703.81;5034202;28;20041;-47
2023/02/03 07:32:51;;;;;;;3.30;1.03;;;6.60;99.90;;;9.44;57.19;98712.19;5032557;28;20076;-46
2023/02/03 07:35:20;;;;;;;1.43;1.10;;;6.60;99.90;;;9.57;56.66;98720.84;5033768;28;20053;-49
2023/02/03 07:37:47;;;;;;;3.57;1.50;;;6.60;99.90;;;9.65;56.44;98728.16;5034423;28;20092;-53
2023/02/03 07:40:15;;;;;;;1.43;0.97;;;6.70;99.90;;;9.51;56.60;98739.13;5034979;28;20405;-50
2023/02/03 07:42:45;;;;;;;1.83;1.13;;;6.60;99.90;;;9.51;56.69;98747.94;5034226;28;20448;-47
2023/02/03 07:45:15;;;;;;;1.93;1.07;;;6.60;99.90;;;9.57;56.68;98763.38;5033930;28;20045;-49
2023/02/03 07:47:43;;;;;;;1.13;0.80;;;6.60;99.90;;;9.41;56.75;98779.75;5033676;28;20523;-48
2023/02/03 07:50:11;;;;;;;1.63;1.20;;;6.60;99.90;;;9.38;56.86;98773.84;5033762;28;20392;-50
2023/02/03 07:52:39;;;;;;;3.27;1.77;;;6.60;99.90;;;9.16;57.63;98769.44;5029805;28;20072;-46
2023/02/03 07:55:08;;;;;;;3.57;1.30;;;6.50;99.90;;;9.21;57.51;98773.44;5032189;28;20046;-46
2023/02/03 07:57:36;;;;;;;1.90;1.30;;;6.50;99.90;;;9.19;57.30;98774.50;5032474;28;20052;-48
2023/02/03 08:00:04;;;;;;;1.87;1.47;;;6.60;99.90;;;9.26;57.64;98789.81;5032439;28;20045;-45
2023/02/03 08:02:39;;;;;;;1.93;1.33;;;6.60;99.90;;;9.01;58.23;98798.94;5035750;28;20053;-50
2023/02/03 08:05:07;;;;;;;1.93;1.37;;;6.60;99.90;;;9.25;57.74;98797.94;5033483;28;20048;-49
2023/02/03 08:07:35;;;;;;;4.23;1.27;;;6.60;99.90;;;9.27;57.66;98815.44;5033444;28;20048;-50
2023/02/03 08:10:05;;;;;;;3.97;1.50;;;6.60;99.90;;;9.38;57.43;98793.31;5032022;28;20046;-48
2023/02/03 08:12:33;;;;;;;2.13;1.30;;;6.70;99.90;;;9.39;57.80;98786.19;5033167;28;20044;-48
2023/02/03 08:15:00;;;;;;;1.60;1.10;;;6.70;99.90;;;9.20;58.27;98792.13;5032080;28;20041;-46
2023/02/03 08:17:28;;;;;;;1.80;1.70;;;6.60;99.90;;;9.05;58.88;98797.75;5033498;28;20045;-46
2023/02/03 08:19:55;;;;;;;2.20;1.47;;;6.50;99.90;;;9.00;59.39;98804.38;5033007;28;20109;-47
2023/02/03 08:22:23;;;;;;;3.20;1.60;;;6.40;99.90;;;9.20;58.50;98802.78;5032518;28;20068;-48
2023/02/03 08:24:50;;;;;;;1.83;1.43;;;6.50;99.90;;;9.04;59.02;98809.31;5032777;28;20049;-47
2023/02/03 08:27:21;;;;;;;1.83;1.33;;;6.40;99.90;;;9.12;58.70;98800.72;5023737;28;20049;-48
2023/02/03 08:29:49;;;;;;;2.03;1.50;;;6.40;99.90;;;9.24;58.27;98799.72;5033136;28;20057;-47
2023/02/03 08:32:21;;;;;;;2.13;1.50;;;6.50;99.90;;;9.36;58.11;98800.53;5032382;28;20421;-48
2023/02/03 08:34:50;;;;;;;2.20;1.40;;;6.60;99.90;;;9.05;58.93;98804.84;5032644;28;20045;-48
2023/02/03 08:37:23;;;;;;;2.33;1.40;;;6.50;99.90;;;9.15;58.79;98800.50;5031238;28;20493;-46
2023/02/03 08:39:51;;;;;;;3.88;1.73;;;6.50;99.90;;;9.17;58.56;98810.97;5033028;28;20042;-47
2023/02/03 08:42:19;;;;;;;3.03;1.47;;;6.50;99.90;;;9.14;58.81;98827.19;5031859;28;20050;-48
2023/02/03 08:44:48;;;;;;;2.93;1.27;;;6.50;99.90;;;8.68;59.98;98815.72;5031433;28;20417;-50
2023/02/03 08:47:17;;;;;;;2.97;1.20;;;6.50;99.90;;;8.96;59.57;98817.06;5031148;28;20057;-48
2023/02/03 08:49:45;;;;;;;3.03;1.73;;;6.50;99.90;;;8.90;59.73;98806.06;5032495;28;20041;-50
2023/02/03 08:52:13;;;;;;;3.23;1.50;;;6.50;99.90;;;8.92;59.85;98802.34;5032196;28;20152;-53
2023/02/03 08:54:44;;;;;;;2.23;1.53;;;6.50;99.90;;;8.91;60.01;98808.59;5032733;28;20037;-50
2023/02/03 08:57:11;;;;;;;3.73;1.97;;;6.40;99.90;;;8.86;60.10;98797.53;5032234;28;20405;-52
2023/02/03 08:59:42;;;;;;;4.87;1.63;;;6.40;99.90;;;9.11;59.38;98798.19;5031828;28;20052;-50
2023/02/03 09:02:16;;;;;;;1.87;1.20;;;6.40;99.90;;;8.78;60.51;98810.53;5030865;28;20065;-52
2023/02/03 09:04:44;;;;;;;;;;;6.40;99.90;;;8.98;59.83;98823.09;5031936;28;20477;-48
2023/02/03 09:07:12;;;;;;;2.07;1.20;;;6.50;99.90;;;9.11;59.65;98776.94;5032430;28;19921;-51
2023/02/03 09:09:40;;;;;;;1.67;1.30;;;6.50;99.90;;;9.09;59.78;98792.16;5031916;28;20049;-48
2023/02/03 09:12:10;;;;;;;2.53;1.40;;;6.60;99.90;;;9.08;59.70;98793.97;5031663;28;20041;-49
2023/02/03 09:14:38;;;;;;;2.30;1.30;;;6.60;99.90;;;9.11;59.74;98788.44;5015244;28;20041;-51
2023/02/03 09:17:07;;;;;;;2.50;1.40;;;6.60;99.90;;;9.30;59.32;98778.94;5032318;28;20422;-51
2023/02/03 09:19:34;;;;;;;2.73;1.47;;;6.70;99.90;;;9.26;59.48;98776.53;5032247;28;20042;-49
2023/02/03 09:22:03;;;;;;;3.60;1.57;;;6.70;99.90;;;9.52;58.89;98772.69;5030623;28;20068;-52
2023/02/03 09:24:31;;;;;;;1.30;1.00;;;6.90;99.90;;;9.75;58.81;98792.06;5032286;28;20411;-50
2023/02/03 09:27:00;;;;;;;1.80;1.23;;;7.00;99.90;;;9.68;58.69;98796.22;5032095;28;20041;-49
2023/02/03 09:29:27;;;;;;;2.50;1.40;;;7.00;99.90;;;9.61;58.72;98798.53;5031868;28;20472;-52
2023/02/03 09:31:55;;;;;;;2.33;1.23;;;7.00;99.90;;;9.66;58.92;98799.00;5031653;28;20041;-50
2023/02/03 09:34:23;;;;;;;1.00;0.90;;;7.00;99.90;;;9.52;58.90;98807.25;5031699;28;20057;-50
2023/02/03 09:36:50;;;;;;;1.23;1.03;;;6.90;99.90;;;9.62;58.63;98789.59;5031780;28;20049;-47
2023/02/03 09:39:18;;;;;;;2.33;1.10;;;7.00;99.90;;;9.59;58.71;98792.50;5031717;28;20053;-53
2023/02/03 09:41:53;;;;;;;2.30;1.30;;;7.00;99.90;;;9.68;58.34;98793.56;5031666;28;20038;-51
2023/02/03 09:44:50;;;;;;;1.40;0.97;;;7.00;99.90;;;9.65;58.62;98815.91;5031555;28;20075;-52
2023/02/03 09:47:25;;;;;;;2.73;1.20;;;7.10;99.90;;;9.68;58.39;98797.06;5031002;28;20432;-51
2023/02/03 09:49:59;;;;;;;1.97;1.27;;;7.10;99.90;;;9.84;58.52;98794.78;5030577;28;20064;-46
2023/02/03 09:52:38;;;;;;;2.53;1.30;;;7.10;99.90;;;9.93;58.24;98795.84;5030829;28;20045;-44
2023/02/03 09:55:41;;;;;;;1.17;0.90;;;7.20;99.90;;;10.00;57.37;98785.53;5030691;28;20045;-53
2023/02/03 09:58:17;;;;;;;2.17;1.03;;;7.20;99.90;;;10.03;57.72;98794.09;5026931;28;20050;-49
2023/02/03 10:00:58;;;;;;;1.73;0.87;;;7.30;99.90;;;10.07;57.29;98775.22;5013885;28;20053;-47
2023/02/03 10:04:00;;;;;;;3.40;1.17;;;7.30;99.90;;;10.10;57.79;98767.84;5030073;28;20497;-50
2023/02/03 10:06:44;;;;;;;1.23;1.13;;;7.30;99.90;;;9.88;57.64;98765.28;5031451;28;20049;-45
2023/02/03 10:09:38;;;;;;;2.38;2.00;;;7.30;99.90;;;9.60;57.92;98771.09;5029955;28;20307;-51
2023/02/03 10:12:19;;;;;;;3.50;1.95;;;7.30;99.90;;;9.82;57.43;98777.28;5029926;28;20052;-47
2023/02/03 10:15:26;;;;;;;2.50;1.53;;;7.20;99.90;;;9.92;57.33;98778.19;5023685;28;20398;-50
2023/02/03 10:18:04;;;;;;;2.03;1.20;;;7.20;99.90;;;10.11;56.73;98769.50;5025758;28;20048;-46
2023/02/03 10:20:40;;;;;;;1.67;1.00;;;7.30;99.90;;;9.96;56.67;98805.38;5032147;28;20049;-46
2023/02/03 10:23:32;;;;;;;1.73;1.30;;;7.30;99.90;;;9.94;57.31;98799.34;5030524;28;20497;-50
2023/02/03 10:26:08;;;;;;;1.33;1.00;;;7.30;99.90;;;10.03;56.62;98794.09;5026390;28;20488;-52
2023/02/03 10:28:42;;;;;;;1.63;1.30;;;7.30;99.90;;;10.15;56.69;98792.22;5030439;28;20045;-47
2023/02/03 10:31:23;;;;;;;2.13;1.00;;;7.40;99.90;;;10.14;56.63;98789.69;5031765;28;20049;-45
2023/02/03 10:34:10;;;;;;;0.87;0.83;;;7.50;99.90;;;10.09;56.99;98800.72;5025602;28;20045;-47
2023/02/03 10:37:07;;;;;;;2.20;0.90;;;7.50;99.90;;;10.08;56.61;98798.19;5014798;28;20497;-52
2023/02/03 10:39:50;;;;;;;1.80;1.10;;;7.50;99.90;;;10.45;55.81;98787.94;5031064;28;20421;-47
2023/02/03 10:42:20;;;;;;;2.17;1.55;;;7.70;99.90;;;10.49;55.45;98769.88;5030844;28;20042;-45
2023/02/03 10:44:55;;;;;;;1.37;1.20;;;7.70;99.90;;;10.57;55.74;98770.91;5030371;28;20050;-46
2023/02/03 10:47:33;;;;;;;1.63;1.13;;;7.80;99.90;;;10.63;55.18;98756.22;5030862;28;20497;-45
2023/02/03 10:50:22;;;;;;;2.80;0.97;;;7.70;99.90;;;10.61;54.96;98743.03;5031605;28;20045;-50
2023/02/03 10:52:49;;;;;;;4.80;2.30;;;7.90;99.90;;;10.63;55.01;98757.03;5023774;28;20052;-51
2023/02/03 10:55:26;;;;;;;1.87;0.90;;;7.80;99.90;;;10.59;54.96;98752.13;5027930;28;20413;-50
2023/02/03 10:57:54;;;;;;;1.97;1.07;;;7.80;99.90;;;10.47;54.90;98754.06;5032490;28;20510;-46
2023/02/03 11:00:31;;;;;;;2.13;0.93;;;7.80;99.90;;;10.34;55.56;98759.59;5034660;28;20048;-47